地図

経路データ

SID SEASON NUMBER BASIN SUBBASIN NAME ISO_TIME NATURE LAT LON WMO_WIND WMO_PRES WMO_AGENCY TRACK_TYPE DIST2LAND LANDFALL IFLAG USA_AGENCY USA_ATCF_ID USA_LAT USA_LON USA_RECORD USA_STATUS USA_WIND USA_PRES USA_SSHS USA_R34_NE USA_R34_SE USA_R34_SW USA_R34_NW USA_R50_NE USA_R50_SE USA_R50_SW USA_R50_NW USA_R64_NE USA_R64_SE USA_R64_SW USA_R64_NW USA_POCI USA_ROCI USA_RMW USA_EYE TOKYO_LAT TOKYO_LON TOKYO_GRADE TOKYO_WIND TOKYO_PRES TOKYO_R50_DIR TOKYO_R50_LONG TOKYO_R50_SHORT TOKYO_R30_DIR TOKYO_R30_LONG TOKYO_R30_SHORT TOKYO_LAND CMA_LAT CMA_LON CMA_CAT CMA_WIND CMA_PRES HKO_LAT HKO_LON HKO_CAT HKO_WIND HKO_PRES NEWDELHI_LAT NEWDELHI_LON NEWDELHI_GRADE NEWDELHI_WIND NEWDELHI_PRES NEWDELHI_CI NEWDELHI_DP NEWDELHI_POCI REUNION_LAT REUNION_LON REUNION_TYPE REUNION_WIND REUNION_PRES REUNION_TNUM REUNION_CI REUNION_RMW REUNION_R34_NE REUNION_R34_SE REUNION_R34_SW REUNION_R34_NW REUNION_R50_NE REUNION_R50_SE REUNION_R50_SW REUNION_R50_NW REUNION_R64_NE REUNION_R64_SE REUNION_R64_SW REUNION_R64_NW BOM_LAT BOM_LON BOM_TYPE BOM_WIND BOM_PRES BOM_TNUM BOM_CI BOM_RMW BOM_R34_NE BOM_R34_SE BOM_R34_SW BOM_R34_NW BOM_R50_NE BOM_R50_SE BOM_R50_SW BOM_R50_NW BOM_R64_NE BOM_R64_SE BOM_R64_SW BOM_R64_NW BOM_ROCI BOM_POCI BOM_EYE BOM_POS_METHOD BOM_PRES_METHOD NADI_LAT NADI_LON NADI_CAT NADI_WIND NADI_PRES WELLINGTON_LAT WELLINGTON_LON WELLINGTON_WIND WELLINGTON_PRES DS824_LAT DS824_LON DS824_STAGE DS824_WIND DS824_PRES TD9636_LAT TD9636_LON TD9636_STAGE TD9636_WIND TD9636_PRES TD9635_LAT TD9635_LON TD9635_WIND TD9635_PRES TD9635_ROCI NEUMANN_LAT NEUMANN_LON NEUMANN_CLASS NEUMANN_WIND NEUMANN_PRES MLC_LAT MLC_LON MLC_CLASS MLC_WIND MLC_PRES USA_GUST BOM_GUST BOM_GUST_PER REUNION_GUST REUNION_GUST_PER USA_SEAHGT USA_SEARAD_NE USA_SEARAD_SE USA_SEARAD_SW USA_SEARAD_NW STORM_SPEED STORM_DIR
1926081S16129 1926 14 SI WA NOT_NAMED 1926-03-21 23:00:00 NR -16.4000 129.100 1000 bom main 0 0 ______O_______ -1 -16.4000 129.100 1000 19 126
1926081S16129 1926 14 SI WA NOT_NAMED 1926-03-22 00:00:00 TS -16.5857 129.372 main 0 0 ______P__O____ -1 -16.5785 129.357 -16.6000 129.400 TC 30 1000 19 125
1926081S16129 1926 14 SI WA NOT_NAMED 1926-03-22 03:00:00 TS -17.1228 130.157 main 0 0 ______P__P____ -1 -17.1141 130.135 -17.1357 130.190 TC 19 125
1926081S16129 1926 14 SI WA NOT_NAMED 1926-03-22 06:00:00 TS -17.6620 130.954 main 0 0 ______P__P____ -1 -17.6533 130.926 -17.6735 130.991 TC 19 125
1926081S16129 1926 14 SI WA NOT_NAMED 1926-03-22 09:00:00 TS -18.2094 131.772 main 0 0 ______P__P____ -1 -18.2009 131.736 -18.2179 131.809 TC 19 125
1926081S16129 1926 14 SI WA NOT_NAMED 1926-03-22 12:00:00 TS -18.7674 132.612 main 0 0 ______P__P____ -1 -18.7613 132.573 -18.7735 132.650 TC 20 125
1926081S16129 1926 14 SI WA NOT_NAMED 1926-03-22 15:00:00 TS -19.3420 133.484 main 0 0 ______P__P____ -1 -19.3391 133.445 -19.3449 133.523 TC 21 125
1926081S16129 1926 14 SI WA NOT_NAMED 1926-03-22 18:00:00 TS -19.9380 134.396 main 0 0 ______P__P____ -1 -19.9391 134.359 -19.9368 134.433 TC 21 125
1926081S16129 1926 14 SP EA NOT_NAMED 1926-03-22 21:00:00 TS -20.5596 135.357 main 0 0 ______P__P____ -1 -20.5655 135.324 -20.5537 135.389 TC 22 125
1926081S16129 1926 14 SP EA NOT_NAMED 1926-03-22 23:00:00 TS -20.9905 136.028 1000 bom main 0 0 ______O__P____ -1 -21.0000 136.000 1000 -20.9810 136.057 TC 23 124
1926081S16129 1926 14 SP EA NOT_NAMED 1926-03-23 00:00:00 TS -21.2113 136.374 main 0 0 ______P__O____ -1 -21.2227 136.349 -21.2000 136.400 TC 30 1000 24 124
1926081S16129 1926 14 SP EA NOT_NAMED 1926-03-23 03:00:00 TS -21.8943 137.453 main 0 0 ______P__P____ -1 -21.9105 137.435 -21.8780 137.471 TC 25 124
1926081S16129 1926 14 SP EA NOT_NAMED 1926-03-23 06:00:00 TS -22.6026 138.584 main 0 0 ______P__P____ -1 -22.6226 138.573 -22.5826 138.596 TC 26 124
1926081S16129 1926 14 SP EA NOT_NAMED 1926-03-23 09:00:00 TS -23.3293 139.759 main 0 0 ______P__P____ -1 -23.3519 139.754 -23.3068 139.764 TC 26 124
1926081S16129 1926 14 SP EA NOT_NAMED 1926-03-23 12:00:00 TS -24.0679 140.967 main 0 0 ______P__P____ -1 -24.0919 140.966 -24.0439 140.967 TC 27 124
1926081S16129 1926 14 SP EA NOT_NAMED 1926-03-23 15:00:00 TS -24.8119 142.196 main 0 0 ______P__P____ -1 -24.8363 142.199 -24.7875 142.193 TC 27 124
1926081S16129 1926 14 SP EA NOT_NAMED 1926-03-23 18:00:00 TS -25.5555 143.436 main 0 0 ______P__P____ -1 -25.5792 143.441 -25.5317 143.431 TC 27 124
1926081S16129 1926 14 SP EA NOT_NAMED 1926-03-23 21:00:00 TS -26.2931 144.676 main 0 0 ______P__P____ -1 -26.3154 144.681 -26.2709 144.671 TC 27 124
1926081S16129 1926 14 SP EA NOT_NAMED 1926-03-23 23:00:00 TS -26.7792 145.496 999 bom main 0 0 ______O__P____ -1 -26.8000 145.500 999 -26.7584 145.492 TC 26 124
1926081S16129 1926 14 SP EA NOT_NAMED 1926-03-24 00:00:00 TS -27.0162 145.897 main 0 0 ______P__O____ -1 -27.0323 145.893 -27.0000 145.900 TC 30 999 26 124
1926081S16129 1926 14 SP EA NOT_NAMED 1926-03-24 03:00:00 TS -27.7209 147.090 main 0 0 ______P__P____ -1 -27.7261 147.070 -27.7156 147.111 TC 25 124
1926081S16129 1926 14 SP EA NOT_NAMED 1926-03-24 06:00:00 TS -28.4166 148.274 main 0 0 ______P__P____ -1 -28.4149 148.243 -28.4182 148.305 TC 25 124
1926081S16129 1926 14 SP EA NOT_NAMED 1926-03-24 09:00:00 TS -29.1037 149.453 main 0 0 ______P__P____ -1 -29.0983 149.417 -29.1090 149.488 TC 25 124
1926081S16129 1926 14 SP EA NOT_NAMED 1926-03-24 12:00:00 TS -29.7823 150.630 main 0 0 ______P__P____ -1 -29.7759 150.595 -29.7887 150.664 TC 25 123
1926081S16129 1926 14 SP EA NOT_NAMED 1926-03-24 15:00:00 TS -30.4525 151.810 main 0 0 ______P__P____ -1 -30.4471 151.780 -30.4578 151.840 TC 24 123
1926081S16129 1926 14 SP EA NOT_NAMED 1926-03-24 18:00:00 TS -31.1138 152.997 main 0 0 ______P__P____ -1 -31.1112 152.975 -31.1163 153.018 TC 24 123
1926081S16129 1926 14 SP EA NOT_NAMED 1926-03-24 21:00:00 TS -31.7659 154.193 main 126 126 ______P__P____ -1 -31.7674 154.185 -31.7639 154.203 TC 24 122
1926081S16129 1926 14 SP EA NOT_NAMED 1926-03-24 23:00:00 TS -32.1964 155.000 996 bom main 211 211 ______O__P____ -1 -32.2000 155.000 996 -32.1893 155.000 TC 24 122
1926081S16129 1926 14 SP EA NOT_NAMED 1926-03-25 00:00:00 TS -32.4118 155.409 main 253 253 ______P__O____ -1 -32.4147 155.411 -32.4000 155.400 TC 35 996 25 121
1926081S16129 1926 14 SP EA NOT_NAMED 1926-03-25 03:00:00 NR -33.0523 156.657 main 392 392 ______P_______ -1 -33.0523 156.657 TC 25 121
1926081S16129 1926 14 SP EA NOT_NAMED 1926-03-25 06:00:00 NR -33.6797 157.924 main 521 521 ______P_______ -1 -33.6797 157.924 TC 25 120
1926081S16129 1926 14 SP EA NOT_NAMED 1926-03-25 09:00:00 NR -34.2962 159.212 main 656 656 ______P_______ -1 -34.2962 159.212 TC 25 120
1926081S16129 1926 14 SP MM NOT_NAMED 1926-03-25 12:00:00 NR -34.9010 160.522 main 789 789 ______P_______ -1 -34.9010 160.522 TC 25 119
1926081S16129 1926 14 SP MM NOT_NAMED 1926-03-25 15:00:00 NR -35.4930 161.853 main 931 876 ______P_______ -1 -35.4930 161.853 TC 25 118
1926081S16129 1926 14 SP MM NOT_NAMED 1926-03-25 18:00:00 NR -36.0711 163.204 main 869 767 ______P_______ -1 -36.0711 163.204 TC 25 117
1926081S16129 1926 14 SP MM NOT_NAMED 1926-03-25 21:00:00 NR -36.6339 164.576 main 758 705 ______P_______ -1 -36.6339 164.576 TC 25 117
1926081S16129 1926 14 SP MM NOT_NAMED 1926-03-25 23:00:00 NR -37.0000 165.500 1000 bom main 697 ______O_______ -1 -37.0000 165.500 1000 TC 25 116

IBTrACS Databaseについて

本データベースは、米国NOAAが公開する1842年以降の世界の熱帯低気圧のベストトラックデータアーカイブInternational Best Track Archive for Climate Stewardship (IBTrACS)を、ウェブで閲覧しやすい形式に変換したものです。

最終更新日:2021-12-03